sensor_id;sensor_type;location;lat;lon;timestamp;temperature;humidity
22436;DHT22;11385;50.822;4.324;2023-03-01T00:00:00;3.40;99.90
22436;DHT22;11385;50.822;4.324;2023-03-01T00:02:27;3.30;99.90
22436;DHT22;11385;50.822;4.324;2023-03-01T00:04:54;3.40;99.90
22436;DHT22;11385;50.822;4.324;2023-03-01T00:07:20;3.40;99.90
22436;DHT22;11385;50.822;4.324;2023-03-01T00:09:47;3.40;99.90
22436;DHT22;11385;50.822;4.324;2023-03-01T00:12:14;3.30;99.90
22436;DHT22;11385;50.822;4.324;2023-03-01T00:14:40;3.40;99.90
22436;DHT22;11385;50.822;4.324;2023-03-01T00:17:07;3.40;99.90
22436;DHT22;11385;50.822;4.324;2023-03-01T00:19:34;3.30;99.90
22436;DHT22;11385;50.822;4.324;2023-03-01T00:22:01;3.20;99.90
22436;DHT22;11385;50.822;4.324;2023-03-01T00:24:27;3.30;99.90
22436;DHT22;11385;50.822;4.324;2023-03-01T00:26:55;3.30;99.90
22436;DHT22;11385;50.822;4.324;2023-03-01T00:29:24;3.30;99.90
22436;DHT22;11385;50.822;4.324;2023-03-01T00:31:51;3.20;99.90
22436;DHT22;11385;50.822;4.324;2023-03-01T00:34:18;3.20;99.90
22436;DHT22;11385;50.822;4.324;2023-03-01T00:36:44;3.20;99.90
22436;DHT22;11385;50.822;4.324;2023-03-01T00:39:13;3.10;99.90
22436;DHT22;11385;50.822;4.324;2023-03-01T00:41:41;3.10;99.90
22436;DHT22;11385;50.822;4.324;2023-03-01T00:44:08;3.00;99.90
22436;DHT22;11385;50.822;4.324;2023-03-01T00:46:35;3.00;99.90
22436;DHT22;11385;50.822;4.324;2023-03-01T00:49:03;3.00;99.90
22436;DHT22;11385;50.822;4.324;2023-03-01T00:51:30;3.00;99.90
22436;DHT22;11385;50.822;4.324;2023-03-01T00:54:00;3.10;99.90
22436;DHT22;11385;50.822;4.324;2023-03-01T00:56:27;3.10;99.90
22436;DHT22;11385;50.822;4.324;2023-03-01T00:58:54;3.00;99.90
22436;DHT22;11385;50.822;4.324;2023-03-01T01:01:23;3.00;99.90
22436;DHT22;11385;50.822;4.324;2023-03-01T01:03:56;3.10;99.90
22436;DHT22;11385;50.822;4.324;2023-03-01T01:06:27;3.00;99.90
22436;DHT22;11385;50.822;4.324;2023-03-01T01:08:55;3.00;99.90
22436;DHT22;11385;50.822;4.324;2023-03-01T01:11:24;3.00;99.90
22436;DHT22;11385;50.822;4.324;2023-03-01T01:13:51;3.10;99.90
22436;DHT22;11385;50.822;4.324;2023-03-01T01:16:20;3.20;99.90
22436;DHT22;11385;50.822;4.324;2023-03-01T01:18:48;3.10;99.90
22436;DHT22;11385;50.822;4.324;2023-03-01T01:21:18;3.10;99.90
22436;DHT22;11385;50.822;4.324;2023-03-01T01:23:46;2.90;99.90
22436;DHT22;11385;50.822;4.324;2023-03-01T01:26:18;2.90;99.90
22436;DHT22;11385;50.822;4.324;2023-03-01T01:28:45;2.90;99.90
22436;DHT22;11385;50.822;4.324;2023-03-01T01:31:12;2.80;99.90
22436;DHT22;11385;50.822;4.324;2023-03-01T01:33:39;2.70;99.90
22436;DHT22;11385;50.822;4.324;2023-03-01T01:36:07;2.80;99.90
22436;DHT22;11385;50.822;4.324;2023-03-01T01:38:35;2.80;99.90
22436;DHT22;11385;50.822;4.324;2023-03-01T01:41:03;2.90;99.90
22436;DHT22;11385;50.822;4.324;2023-03-01T01:43:34;2.70;99.90
22436;DHT22;11385;50.822;4.324;2023-03-01T01:46:04;2.80;99.90
22436;DHT22;11385;50.822;4.324;2023-03-01T01:48:39;2.60;99.90
22436;DHT22;11385;50.822;4.324;2023-03-01T01:51:09;2.70;99.90
22436;DHT22;11385;50.822;4.324;2023-03-01T01:53:37;2.80;99.90
22436;DHT22;11385;50.822;4.324;2023-03-01T01:56:08;2.80;99.90
22436;DHT22;11385;50.822;4.324;2023-03-01T01:58:35;2.70;99.90
22436;DHT22;11385;50.822;4.324;2023-03-01T02:01:04;2.60;99.90
22436;DHT22;11385;50.822;4.324;2023-03-01T02:03:32;2.50;99.90
22436;DHT22;11385;50.822;4.324;2023-03-01T02:06:04;2.60;99.90
22436;DHT22;11385;50.822;4.324;2023-03-01T02:08:35;2.60;99.90
22436;DHT22;11385;50.822;4.324;2023-03-01T02:11:04;2.70;99.90
22436;DHT22;11385;50.822;4.324;2023-03-01T02:13:31;2.70;99.90
22436;DHT22;11385;50.822;4.324;2023-03-01T02:18:27;2.50;99.90
22436;DHT22;11385;50.822;4.324;2023-03-01T02:21:32;2.40;99.90
22436;DHT22;11385;50.822;4.324;2023-03-01T02:23:41;2.40;99.90
22436;DHT22;11385;50.822;4.324;2023-03-01T02:26:23;2.40;99.90
22436;DHT22;11385;50.822;4.324;2023-03-01T02:28:52;2.50;99.90
22436;DHT22;11385;50.822;4.324;2023-03-01T02:31:21;2.40;99.90
22436;DHT22;11385;50.822;4.324;2023-03-01T02:33:54;2.30;99.90
22436;DHT22;11385;50.822;4.324;2023-03-01T02:36:25;2.40;99.90
22436;DHT22;11385;50.822;4.324;2023-03-01T02:38:56;2.50;99.90
22436;DHT22;11385;50.822;4.324;2023-03-01T02:41:26;2.30;99.90
22436;DHT22;11385;50.822;4.324;2023-03-01T02:43:54;2.20;99.90
22436;DHT22;11385;50.822;4.324;2023-03-01T02:46:24;2.10;99.90
22436;DHT22;11385;50.822;4.324;2023-03-01T02:48:54;2.10;99.90
22436;DHT22;11385;50.822;4.324;2023-03-01T02:51:42;2.10;99.90
22436;DHT22;11385;50.822;4.324;2023-03-01T02:54:33;2.30;99.90
22436;DHT22;11385;50.822;4.324;2023-03-01T02:56:59;2.30;99.90
22436;DHT22;11385;50.822;4.324;2023-03-01T02:59:30;2.30;99.90
22436;DHT22;11385;50.822;4.324;2023-03-01T03:01:56;2.30;99.90
22436;DHT22;11385;50.822;4.324;2023-03-01T03:04:23;2.20;99.90
22436;DHT22;11385;50.822;4.324;2023-03-01T03:06:50;2.20;99.90
22436;DHT22;11385;50.822;4.324;2023-03-01T03:09:18;2.30;99.90
22436;DHT22;11385;50.822;4.324;2023-03-01T03:11:45;2.30;99.90
22436;DHT22;11385;50.822;4.324;2023-03-01T03:14:13;2.20;99.90
22436;DHT22;11385;50.822;4.324;2023-03-01T03:16:43;2.30;99.90
22436;DHT22;11385;50.822;4.324;2023-03-01T03:19:11;2.20;99.90
22436;DHT22;11385;50.822;4.324;2023-03-01T03:21:38;2.30;99.90
22436;DHT22;11385;50.822;4.324;2023-03-01T03:24:05;2.20;99.90
22436;DHT22;11385;50.822;4.324;2023-03-01T03:26:32;2.30;99.90
22436;DHT22;11385;50.822;4.324;2023-03-01T03:28:59;2.30;99.90
22436;DHT22;11385;50.822;4.324;2023-03-01T03:31:26;2.20;99.90
22436;DHT22;11385;50.822;4.324;2023-03-01T03:33:53;2.30;99.90
22436;DHT22;11385;50.822;4.324;2023-03-01T03:36:23;2.30;99.90
22436;DHT22;11385;50.822;4.324;2023-03-01T03:38:51;2.20;99.90
22436;DHT22;11385;50.822;4.324;2023-03-01T03:41:18;2.10;99.90
22436;DHT22;11385;50.822;4.324;2023-03-01T03:43:44;2.10;99.90
22436;DHT22;11385;50.822;4.324;2023-03-01T03:46:11;2.10;99.90
22436;DHT22;11385;50.822;4.324;2023-03-01T03:48:40;2.00;99.90
22436;DHT22;11385;50.822;4.324;2023-03-01T03:51:10;1.90;99.90
22436;DHT22;11385;50.822;4.324;2023-03-01T03:53:39;1.90;99.90
22436;DHT22;11385;50.822;4.324;2023-03-01T03:56:06;1.90;99.90
22436;DHT22;11385;50.822;4.324;2023-03-01T03:58:33;1.90;99.90
22436;DHT22;11385;50.822;4.324;2023-03-01T04:00:59;2.00;99.90
22436;DHT22;11385;50.822;4.324;2023-03-01T04:03:28;1.90;99.90
22436;DHT22;11385;50.822;4.324;2023-03-01T04:05:57;1.90;99.90
22436;DHT22;11385;50.822;4.324;2023-03-01T04:08:24;1.90;99.90
22436;DHT22;11385;50.822;4.324;2023-03-01T04:10:52;1.70;99.90
22436;DHT22;11385;50.822;4.324;2023-03-01T04:13:22;1.70;99.90
22436;DHT22;11385;50.822;4.324;2023-03-01T04:15:52;1.80;99.90
22436;DHT22;11385;50.822;4.324;2023-03-01T04:18:21;1.90;99.90
22436;DHT22;11385;50.822;4.324;2023-03-01T04:20:49;1.80;99.90
22436;DHT22;11385;50.822;4.324;2023-03-01T04:23:19;1.70;99.90
22436;DHT22;11385;50.822;4.324;2023-03-01T04:25:50;1.60;99.90
22436;DHT22;11385;50.822;4.324;2023-03-01T04:28:21;1.50;99.90
22436;DHT22;11385;50.822;4.324;2023-03-01T04:30:52;1.50;99.90
22436;DHT22;11385;50.822;4.324;2023-03-01T04:33:18;1.60;99.90
22436;DHT22;11385;50.822;4.324;2023-03-01T04:35:45;1.80;99.90
22436;DHT22;11385;50.822;4.324;2023-03-01T04:38:14;1.70;99.90
22436;DHT22;11385;50.822;4.324;2023-03-01T04:40:41;1.70;99.90
22436;DHT22;11385;50.822;4.324;2023-03-01T04:43:10;1.60;99.90
22436;DHT22;11385;50.822;4.324;2023-03-01T04:45:37;1.50;99.90
22436;DHT22;11385;50.822;4.324;2023-03-01T04:48:04;1.40;99.90
22436;DHT22;11385;50.822;4.324;2023-03-01T04:50:31;1.50;99.90
22436;DHT22;11385;50.822;4.324;2023-03-01T04:52:57;1.60;99.90
22436;DHT22;11385;50.822;4.324;2023-03-01T04:55:26;1.60;99.90
22436;DHT22;11385;50.822;4.324;2023-03-01T04:57:53;1.60;99.90
22436;DHT22;11385;50.822;4.324;2023-03-01T05:00:21;1.40;99.90
22436;DHT22;11385;50.822;4.324;2023-03-01T05:02:56;1.40;99.90
22436;DHT22;11385;50.822;4.324;2023-03-01T05:05:26;1.30;99.90
22436;DHT22;11385;50.822;4.324;2023-03-01T05:07:56;1.40;99.90
22436;DHT22;11385;50.822;4.324;2023-03-01T05:10:23;1.40;99.90
22436;DHT22;11385;50.822;4.324;2023-03-01T05:12:50;1.30;99.90
22436;DHT22;11385;50.822;4.324;2023-03-01T05:15:19;1.40;99.90
22436;DHT22;11385;50.822;4.324;2023-03-01T05:17:48;1.40;99.90
22436;DHT22;11385;50.822;4.324;2023-03-01T05:20:15;1.40;99.90
22436;DHT22;11385;50.822;4.324;2023-03-01T05:22:42;1.40;99.90
22436;DHT22;11385;50.822;4.324;2023-03-01T05:25:09;1.30;99.90
22436;DHT22;11385;50.822;4.324;2023-03-01T05:27:36;1.30;99.90
22436;DHT22;11385;50.822;4.324;2023-03-01T05:30:04;1.30;99.90
22436;DHT22;11385;50.822;4.324;2023-03-01T05:32:32;1.40;99.90
22436;DHT22;11385;50.822;4.324;2023-03-01T05:34:59;1.30;99.90
22436;DHT22;11385;50.822;4.324;2023-03-01T05:37:26;1.30;99.90
22436;DHT22;11385;50.822;4.324;2023-03-01T05:39:52;1.20;99.90
22436;DHT22;11385;50.822;4.324;2023-03-01T05:42:19;1.10;99.90
22436;DHT22;11385;50.822;4.324;2023-03-01T05:44:45;1.10;99.90
22436;DHT22;11385;50.822;4.324;2023-03-01T05:47:12;1.10;99.90
22436;DHT22;11385;50.822;4.324;2023-03-01T05:49:39;1.10;99.90
22436;DHT22;11385;50.822;4.324;2023-03-01T05:52:05;1.20;99.90
22436;DHT22;11385;50.822;4.324;2023-03-01T05:54:32;1.20;99.90
22436;DHT22;11385;50.822;4.324;2023-03-01T05:56:59;1.10;99.90
22436;DHT22;11385;50.822;4.324;2023-03-01T05:59:25;1.10;99.90
22436;DHT22;11385;50.822;4.324;2023-03-01T06:01:52;1.20;99.90
22436;DHT22;11385;50.822;4.324;2023-03-01T06:04:19;1.20;99.90
22436;DHT22;11385;50.822;4.324;2023-03-01T06:06:46;1.30;99.90
22436;DHT22;11385;50.822;4.324;2023-03-01T06:09:13;1.20;99.90
22436;DHT22;11385;50.822;4.324;2023-03-01T06:11:40;1.20;99.90
22436;DHT22;11385;50.822;4.324;2023-03-01T06:14:08;1.20;99.90
22436;DHT22;11385;50.822;4.324;2023-03-01T06:16:36;1.00;99.90
22436;DHT22;11385;50.822;4.324;2023-03-01T06:19:03;1.00;99.90
22436;DHT22;11385;50.822;4.324;2023-03-01T06:21:29;1.00;99.90
22436;DHT22;11385;50.822;4.324;2023-03-01T06:23:56;1.00;99.90
22436;DHT22;11385;50.822;4.324;2023-03-01T06:26:23;1.00;99.90
22436;DHT22;11385;50.822;4.324;2023-03-01T06:28:49;0.90;99.90
22436;DHT22;11385;50.822;4.324;2023-03-01T06:31:16;1.00;99.90
22436;DHT22;11385;50.822;4.324;2023-03-01T06:33:44;1.10;99.90
22436;DHT22;11385;50.822;4.324;2023-03-01T06:36:11;1.10;99.90
22436;DHT22;11385;50.822;4.324;2023-03-01T06:38:37;1.00;99.90
22436;DHT22;11385;50.822;4.324;2023-03-01T06:41:06;1.10;99.90
22436;DHT22;11385;50.822;4.324;2023-03-01T06:43:33;1.20;99.90
22436;DHT22;11385;50.822;4.324;2023-03-01T06:45:59;1.00;99.90
22436;DHT22;11385;50.822;4.324;2023-03-01T06:48:26;1.10;99.90
22436;DHT22;11385;50.822;4.324;2023-03-01T06:50:53;1.00;99.90
22436;DHT22;11385;50.822;4.324;2023-03-01T06:53:20;1.10;99.90
22436;DHT22;11385;50.822;4.324;2023-03-01T06:55:47;1.10;99.90
22436;DHT22;11385;50.822;4.324;2023-03-01T06:58:14;1.20;99.90
22436;DHT22;11385;50.822;4.324;2023-03-01T07:00:40;1.10;99.90
22436;DHT22;11385;50.822;4.324;2023-03-01T07:03:09;1.20;99.90
22436;DHT22;11385;50.822;4.324;2023-03-01T07:05:36;1.30;99.90
22436;DHT22;11385;50.822;4.324;2023-03-01T07:08:05;1.30;99.90
22436;DHT22;11385;50.822;4.324;2023-03-01T07:10:32;1.30;99.90
22436;DHT22;11385;50.822;4.324;2023-03-01T07:12:59;1.20;99.90
22436;DHT22;11385;50.822;4.324;2023-03-01T07:15:27;1.30;99.90
22436;DHT22;11385;50.822;4.324;2023-03-01T07:17:53;1.20;99.90
22436;DHT22;11385;50.822;4.324;2023-03-01T07:20:20;1.30;99.90
22436;DHT22;11385;50.822;4.324;2023-03-01T07:22:50;1.20;99.90
22436;DHT22;11385;50.822;4.324;2023-03-01T07:25:17;1.30;99.90
22436;DHT22;11385;50.822;4.324;2023-03-01T07:27:43;1.30;99.90
22436;DHT22;11385;50.822;4.324;2023-03-01T07:30:11;1.40;99.90
22436;DHT22;11385;50.822;4.324;2023-03-01T07:32:38;1.30;99.90
22436;DHT22;11385;50.822;4.324;2023-03-01T07:35:05;1.30;99.90
22436;DHT22;11385;50.822;4.324;2023-03-01T07:37:32;1.30;99.90
22436;DHT22;11385;50.822;4.324;2023-03-01T07:39:58;1.30;99.90
22436;DHT22;11385;50.822;4.324;2023-03-01T07:42:25;1.30;99.90
22436;DHT22;11385;50.822;4.324;2023-03-01T07:44:51;1.40;99.90
22436;DHT22;11385;50.822;4.324;2023-03-01T07:47:18;1.40;99.90
22436;DHT22;11385;50.822;4.324;2023-03-01T07:49:45;1.40;99.90
22436;DHT22;11385;50.822;4.324;2023-03-01T07:52:11;1.50;99.90
22436;DHT22;11385;50.822;4.324;2023-03-01T07:54:38;1.50;99.90
22436;DHT22;11385;50.822;4.324;2023-03-01T07:57:05;1.60;99.90
22436;DHT22;11385;50.822;4.324;2023-03-01T07:59:32;1.70;99.90
22436;DHT22;11385;50.822;4.324;2023-03-01T08:01:59;1.80;99.90
22436;DHT22;11385;50.822;4.324;2023-03-01T08:04:26;1.70;99.90
22436;DHT22;11385;50.822;4.324;2023-03-01T08:06:54;1.80;99.90
22436;DHT22;11385;50.822;4.324;2023-03-01T08:09:21;1.70;99.90
22436;DHT22;11385;50.822;4.324;2023-03-01T08:11:48;1.90;99.90
22436;DHT22;11385;50.822;4.324;2023-03-01T08:14:14;1.90;99.90
22436;DHT22;11385;50.822;4.324;2023-03-01T08:16:41;1.90;99.90
22436;DHT22;11385;50.822;4.324;2023-03-01T08:19:10;2.00;99.90
22436;DHT22;11385;50.822;4.324;2023-03-01T08:21:37;2.20;99.90
22436;DHT22;11385;50.822;4.324;2023-03-01T08:24:05;2.20;99.90
22436;DHT22;11385;50.822;4.324;2023-03-01T08:26:33;2.10;99.90
22436;DHT22;11385;50.822;4.324;2023-03-01T08:29:00;2.20;99.90
22436;DHT22;11385;50.822;4.324;2023-03-01T08:31:32;2.20;99.90
22436;DHT22;11385;50.822;4.324;2023-03-01T08:34:04;2.40;99.90
22436;DHT22;11385;50.822;4.324;2023-03-01T08:36:36;2.40;99.90
22436;DHT22;11385;50.822;4.324;2023-03-01T08:39:04;2.50;99.90
22436;DHT22;11385;50.822;4.324;2023-03-01T08:41:31;2.40;99.90
22436;DHT22;11385;50.822;4.324;2023-03-01T08:43:58;2.40;99.90
22436;DHT22;11385;50.822;4.324;2023-03-01T08:46:28;2.60;99.90
22436;DHT22;11385;50.822;4.324;2023-03-01T08:48:55;2.60;99.90
22436;DHT22;11385;50.822;4.324;2023-03-01T08:51:23;2.70;99.90
22436;DHT22;11385;50.822;4.324;2023-03-01T08:53:50;2.70;99.90
22436;DHT22;11385;50.822;4.324;2023-03-01T08:56:17;2.70;99.90
22436;DHT22;11385;50.822;4.324;2023-03-01T08:58:45;2.90;99.90
22436;DHT22;11385;50.822;4.324;2023-03-01T09:01:15;3.00;99.90
22436;DHT22;11385;50.822;4.324;2023-03-01T09:03:43;3.10;99.90
22436;DHT22;11385;50.822;4.324;2023-03-01T09:06:11;3.00;99.90
22436;DHT22;11385;50.822;4.324;2023-03-01T09:08:40;3.10;99.90
22436;DHT22;11385;50.822;4.324;2023-03-01T09:11:09;3.20;99.90
22436;DHT22;11385;50.822;4.324;2023-03-01T09:13:36;3.20;99.90
22436;DHT22;11385;50.822;4.324;2023-03-01T09:16:04;3.20;99.90
22436;DHT22;11385;50.822;4.324;2023-03-01T09:18:32;3.00;99.90
22436;DHT22;11385;50.822;4.324;2023-03-01T09:21:03;3.10;99.90
22436;DHT22;11385;50.822;4.324;2023-03-01T09:23:35;3.10;99.90
22436;DHT22;11385;50.822;4.324;2023-03-01T09:26:06;3.10;99.90
22436;DHT22;11385;50.822;4.324;2023-03-01T09:28:35;3.00;99.90
22436;DHT22;11385;50.822;4.324;2023-03-01T09:31:03;3.10;99.90
22436;DHT22;11385;50.822;4.324;2023-03-01T09:33:31;3.20;99.90
22436;DHT22;11385;50.822;4.324;2023-03-01T09:36:02;3.30;99.90
22436;DHT22;11385;50.822;4.324;2023-03-01T09:38:29;3.50;99.90
22436;DHT22;11385;50.822;4.324;2023-03-01T09:40:56;3.60;99.90
22436;DHT22;11385;50.822;4.324;2023-03-01T09:43:31;3.70;99.90
22436;DHT22;11385;50.822;4.324;2023-03-01T09:45:59;3.70;99.90
22436;DHT22;11385;50.822;4.324;2023-03-01T09:48:29;3.80;99.90
22436;DHT22;11385;50.822;4.324;2023-03-01T09:50:57;3.80;99.90
22436;DHT22;11385;50.822;4.324;2023-03-01T09:53:31;4.00;99.90
22436;DHT22;11385;50.822;4.324;2023-03-01T09:56:04;3.90;99.90
22436;DHT22;11385;50.822;4.324;2023-03-01T09:58:51;3.90;99.90
22436;DHT22;11385;50.822;4.324;2023-03-01T10:01:32;3.90;99.90
22436;DHT22;11385;50.822;4.324;2023-03-01T10:04:23;3.90;99.90
22436;DHT22;11385;50.822;4.324;2023-03-01T10:06:58;4.00;99.90
22436;DHT22;11385;50.822;4.324;2023-03-01T10:09:22;3.90;99.90
22436;DHT22;11385;50.822;4.324;2023-03-01T10:11:52;4.00;99.90
22436;DHT22;11385;50.822;4.324;2023-03-01T10:14:33;4.10;99.90
22436;DHT22;11385;50.822;4.324;2023-03-01T10:17:08;4.00;99.90
22436;DHT22;11385;50.822;4.324;2023-03-01T10:19:41;4.00;99.90
22436;DHT22;11385;50.822;4.324;2023-03-01T10:22:19;4.20;99.90
22436;DHT22;11385;50.822;4.324;2023-03-01T10:24:49;4.10;99.90
22436;DHT22;11385;50.822;4.324;2023-03-01T10:27:23;4.20;99.90
22436;DHT22;11385;50.822;4.324;2023-03-01T10:32:37;4.30;99.90
22436;DHT22;11385;50.822;4.324;2023-03-01T10:35:16;4.40;99.90
22436;DHT22;11385;50.822;4.324;2023-03-01T10:38:03;4.50;99.90
22436;DHT22;11385;50.822;4.324;2023-03-01T10:40:31;4.60;99.90
22436;DHT22;11385;50.822;4.324;2023-03-01T10:43:01;4.60;99.90
22436;DHT22;11385;50.822;4.324;2023-03-01T10:45:38;4.60;99.90
22436;DHT22;11385;50.822;4.324;2023-03-01T10:48:23;4.60;99.90
22436;DHT22;11385;50.822;4.324;2023-03-01T10:51:06;4.80;99.90
22436;DHT22;11385;50.822;4.324;2023-03-01T10:53:36;4.90;99.90
22436;DHT22;11385;50.822;4.324;2023-03-01T10:56:08;4.90;99.90
22436;DHT22;11385;50.822;4.324;2023-03-01T10:58:38;5.10;99.90
22436;DHT22;11385;50.822;4.324;2023-03-01T11:01:26;5.20;99.90
22436;DHT22;11385;50.822;4.324;2023-03-01T11:04:14;5.20;99.90
22436;DHT22;11385;50.822;4.324;2023-03-01T11:06:43;5.30;99.90
22436;DHT22;11385;50.822;4.324;2023-03-01T11:09:15;5.30;99.90
22436;DHT22;11385;50.822;4.324;2023-03-01T11:11:42;5.50;99.90
22436;DHT22;11385;50.822;4.324;2023-03-01T11:14:15;5.30;99.90
22436;DHT22;11385;50.822;4.324;2023-03-01T11:16:45;5.40;99.90
22436;DHT22;11385;50.822;4.324;2023-03-01T11:19:18;5.30;99.90
22436;DHT22;11385;50.822;4.324;2023-03-01T11:24:48;5.50;99.90
22436;DHT22;11385;50.822;4.324;2023-03-01T11:27:21;5.70;99.90
22436;DHT22;11385;50.822;4.324;2023-03-01T11:30:00;5.70;99.90
22436;DHT22;11385;50.822;4.324;2023-03-01T11:32:35;5.90;99.90
22436;DHT22;11385;50.822;4.324;2023-03-01T11:35:11;6.10;99.90
22436;DHT22;11385;50.822;4.324;2023-03-01T11:37:50;6.00;99.90
22436;DHT22;11385;50.822;4.324;2023-03-01T11:40:17;6.30;99.90
22436;DHT22;11385;50.822;4.324;2023-03-01T11:42:52;6.40;99.90
22436;DHT22;11385;50.822;4.324;2023-03-01T11:45:19;6.40;99.90
22436;DHT22;11385;50.822;4.324;2023-03-01T11:47:55;6.40;99.90
22436;DHT22;11385;50.822;4.324;2023-03-01T11:50:45;6.50;99.90
22436;DHT22;11385;50.822;4.324;2023-03-01T11:53:26;6.50;99.90
22436;DHT22;11385;50.822;4.324;2023-03-01T11:56:03;6.40;99.90
22436;DHT22;11385;50.822;4.324;2023-03-01T11:58:36;6.50;99.90
22436;DHT22;11385;50.822;4.324;2023-03-01T12:01:19;6.70;99.90
22436;DHT22;11385;50.822;4.324;2023-03-01T12:03:52;6.70;99.90
22436;DHT22;11385;50.822;4.324;2023-03-01T12:06:30;6.70;99.90
22436;DHT22;11385;50.822;4.324;2023-03-01T12:12:00;6.80;99.90
22436;DHT22;11385;50.822;4.324;2023-03-01T12:18:35;6.90;99.90
22436;DHT22;11385;50.822;4.324;2023-03-01T12:20:17;7.00;99.90
22436;DHT22;11385;50.822;4.324;2023-03-01T12:23:02;7.10;99.90
22436;DHT22;11385;50.822;4.324;2023-03-01T12:25:49;7.10;99.90
22436;DHT22;11385;50.822;4.324;2023-03-01T12:28:30;7.10;99.90
22436;DHT22;11385;50.822;4.324;2023-03-01T12:31:05;7.10;99.90
22436;DHT22;11385;50.822;4.324;2023-03-01T12:33:45;7.10;99.90
22436;DHT22;11385;50.822;4.324;2023-03-01T12:36:24;7.20;99.90
22436;DHT22;11385;50.822;4.324;2023-03-01T12:38:58;7.10;99.90
22436;DHT22;11385;50.822;4.324;2023-03-01T12:41:28;7.30;99.90
22436;DHT22;11385;50.822;4.324;2023-03-01T12:44:22;7.40;99.90
22436;DHT22;11385;50.822;4.324;2023-03-01T12:46:51;7.20;99.90
22436;DHT22;11385;50.822;4.324;2023-03-01T12:49:23;7.10;99.90
22436;DHT22;11385;50.822;4.324;2023-03-01T12:51:59;7.20;99.90
22436;DHT22;11385;50.822;4.324;2023-03-01T12:54:30;7.30;99.90
22436;DHT22;11385;50.822;4.324;2023-03-01T12:57:02;7.30;99.90
22436;DHT22;11385;50.822;4.324;2023-03-01T12:59:31;7.60;99.90
22436;DHT22;11385;50.822;4.324;2023-03-01T13:05:02;7.50;99.90
22436;DHT22;11385;50.822;4.324;2023-03-01T13:07:36;7.70;99.90
22436;DHT22;11385;50.822;4.324;2023-03-01T13:10:29;7.80;99.90
22436;DHT22;11385;50.822;4.324;2023-03-01T13:13:11;7.80;99.90
22436;DHT22;11385;50.822;4.324;2023-03-01T13:15:37;7.80;99.90
22436;DHT22;11385;50.822;4.324;2023-03-01T13:20:56;7.70;99.90
22436;DHT22;11385;50.822;4.324;2023-03-01T13:23:28;7.80;99.90
22436;DHT22;11385;50.822;4.324;2023-03-01T13:26:16;7.80;99.90
22436;DHT22;11385;50.822;4.324;2023-03-01T13:28:49;7.60;99.90
22436;DHT22;11385;50.822;4.324;2023-03-01T13:34:41;7.70;99.90
22436;DHT22;11385;50.822;4.324;2023-03-01T13:37:16;7.60;99.90
22436;DHT22;11385;50.822;4.324;2023-03-01T13:39:40;7.80;99.90
22436;DHT22;11385;50.822;4.324;2023-03-01T13:44:43;7.80;99.90
22436;DHT22;11385;50.822;4.324;2023-03-01T13:47:16;7.90;99.90
22436;DHT22;11385;50.822;4.324;2023-03-01T13:49:52;8.00;99.90
22436;DHT22;11385;50.822;4.324;2023-03-01T13:52:42;8.00;99.90
22436;DHT22;11385;50.822;4.324;2023-03-01T13:55:21;8.10;99.90
22436;DHT22;11385;50.822;4.324;2023-03-01T13:57:50;8.00;99.90
22436;DHT22;11385;50.822;4.324;2023-03-01T14:00:28;8.10;99.90
22436;DHT22;11385;50.822;4.324;2023-03-01T14:03:03;8.10;99.90
22436;DHT22;11385;50.822;4.324;2023-03-01T14:05:32;8.20;99.90
22436;DHT22;11385;50.822;4.324;2023-03-01T14:07:59;8.40;99.90
22436;DHT22;11385;50.822;4.324;2023-03-01T14:10:32;8.40;99.90
22436;DHT22;11385;50.822;4.324;2023-03-01T14:13:17;8.50;99.90
22436;DHT22;11385;50.822;4.324;2023-03-01T14:15:50;8.30;99.90
22436;DHT22;11385;50.822;4.324;2023-03-01T14:18:19;8.30;99.90
22436;DHT22;11385;50.822;4.324;2023-03-01T14:20:47;8.40;99.90
22436;DHT22;11385;50.822;4.324;2023-03-01T14:23:18;8.40;99.90
22436;DHT22;11385;50.822;4.324;2023-03-01T14:25:48;8.20;99.90
22436;DHT22;11385;50.822;4.324;2023-03-01T14:28:23;8.30;99.90
22436;DHT22;11385;50.822;4.324;2023-03-01T14:30:53;8.30;99.90
22436;DHT22;11385;50.822;4.324;2023-03-01T14:33:29;8.20;99.90
22436;DHT22;11385;50.822;4.324;2023-03-01T14:36:12;8.30;99.90
22436;DHT22;11385;50.822;4.324;2023-03-01T14:38:44;8.30;99.90
22436;DHT22;11385;50.822;4.324;2023-03-01T14:41:17;8.40;99.90
22436;DHT22;11385;50.822;4.324;2023-03-01T14:43:49;8.40;99.90
22436;DHT22;11385;50.822;4.324;2023-03-01T14:46:21;8.40;99.90
22436;DHT22;11385;50.822;4.324;2023-03-01T14:48:51;8.30;99.90
22436;DHT22;11385;50.822;4.324;2023-03-01T14:51:18;8.40;99.90
22436;DHT22;11385;50.822;4.324;2023-03-01T14:53:45;8.40;99.90
22436;DHT22;11385;50.822;4.324;2023-03-01T14:56:14;8.50;99.90
22436;DHT22;11385;50.822;4.324;2023-03-01T14:58:43;8.60;99.90
22436;DHT22;11385;50.822;4.324;2023-03-01T15:01:13;8.50;99.90
22436;DHT22;11385;50.822;4.324;2023-03-01T15:03:44;8.50;99.90
22436;DHT22;11385;50.822;4.324;2023-03-01T15:06:15;8.60;99.90
22436;DHT22;11385;50.822;4.324;2023-03-01T15:08:45;8.60;99.90
22436;DHT22;11385;50.822;4.324;2023-03-01T15:11:31;8.50;99.90
22436;DHT22;11385;50.822;4.324;2023-03-01T15:13:58;8.50;99.90
22436;DHT22;11385;50.822;4.324;2023-03-01T15:16:29;8.50;99.90
22436;DHT22;11385;50.822;4.324;2023-03-01T15:19:00;8.60;99.90
22436;DHT22;11385;50.822;4.324;2023-03-01T15:21:55;8.50;99.90
22436;DHT22;11385;50.822;4.324;2023-03-01T15:24:29;8.60;99.90
22436;DHT22;11385;50.822;4.324;2023-03-01T15:27:00;8.50;99.90
22436;DHT22;11385;50.822;4.324;2023-03-01T15:29:30;8.50;99.90
22436;DHT22;11385;50.822;4.324;2023-03-01T15:32:03;8.50;99.90
22436;DHT22;11385;50.822;4.324;2023-03-01T15:34:33;8.40;99.90
22436;DHT22;11385;50.822;4.324;2023-03-01T15:37:03;8.40;99.90
22436;DHT22;11385;50.822;4.324;2023-03-01T15:39:53;8.40;99.90
22436;DHT22;11385;50.822;4.324;2023-03-01T15:45:21;8.30;99.90
22436;DHT22;11385;50.822;4.324;2023-03-01T15:47:50;8.20;99.90
22436;DHT22;11385;50.822;4.324;2023-03-01T15:50:21;8.20;99.90
22436;DHT22;11385;50.822;4.324;2023-03-01T15:52:49;8.30;99.90
22436;DHT22;11385;50.822;4.324;2023-03-01T15:55:19;8.30;99.90
22436;DHT22;11385;50.822;4.324;2023-03-01T15:57:47;8.40;99.90
22436;DHT22;11385;50.822;4.324;2023-03-01T16:00:14;8.40;99.90
22436;DHT22;11385;50.822;4.324;2023-03-01T16:02:42;8.30;99.90
22436;DHT22;11385;50.822;4.324;2023-03-01T16:05:25;8.30;99.90
22436;DHT22;11385;50.822;4.324;2023-03-01T16:07:53;8.20;99.90
22436;DHT22;11385;50.822;4.324;2023-03-01T16:10:20;8.10;99.90
22436;DHT22;11385;50.822;4.324;2023-03-01T16:12:47;8.20;99.90
22436;DHT22;11385;50.822;4.324;2023-03-01T16:15:21;8.20;99.90
22436;DHT22;11385;50.822;4.324;2023-03-01T16:17:49;8.10;99.90
22436;DHT22;11385;50.822;4.324;2023-03-01T16:20:16;8.10;99.90
22436;DHT22;11385;50.822;4.324;2023-03-01T16:22:43;8.00;99.90
22436;DHT22;11385;50.822;4.324;2023-03-01T16:25:13;8.10;99.90
22436;DHT22;11385;50.822;4.324;2023-03-01T16:27:44;8.10;99.90
22436;DHT22;11385;50.822;4.324;2023-03-01T16:30:11;8.00;99.90
22436;DHT22;11385;50.822;4.324;2023-03-01T16:32:39;8.00;99.90